Time;durP1;ratioP1;P1;durP2;ratioP2;P2;SDS_P1;SDS_P2;PMS_P1;PMS_P2;Temp;Humidity;BMP_temperature;BMP_pressure;BME280_temperature;BME280_humidity;BME280_pressure;Samples;Min_cycle;Max_cycle;Signal;HPM_P1;HPM_P2
2022/12/15 00:40:58;;;;;;;30.00;13.68;;;;;;;;;;5036616;28;20049;-84
2022/12/15 00:43:29;;;;;;;29.48;13.60;;;;;;;;;;5035340;28;20061;-84
2022/12/15 00:48:44;;;;;;;30.42;14.13;;;;;;;;;;5036180;28;20099;-84
2022/12/15 00:51:12;;;;;;;28.67;13.73;;;;;;;;;;5035163;28;20047;-84
2022/12/15 01:21:21;;;;;;;28.92;13.05;;;;;;;;;;5037437;28;20099;-84
2022/12/15 01:23:51;;;;;;;27.08;12.48;;;;;;;;;;5037043;28;20411;-84
2022/12/15 01:26:18;;;;;;;28.30;13.63;;;;;;;;;;5038385;28;20072;-83
2022/12/15 01:28:45;;;;;;;27.00;12.80;;;;;;;;;;5038666;28;20084;-84
2022/12/15 01:31:13;;;;;;;27.73;13.15;;;;;;;;;;5038607;28;20056;-83
2022/12/15 01:33:42;;;;;;;29.98;13.15;;;;;;;;;;5038091;28;20053;-84
2022/12/15 01:36:10;;;;;;;30.02;13.07;;;;;;;;;;5038662;28;20085;-84
2022/12/15 01:38:37;;;;;;;33.25;13.93;;;;;;;;;;5039133;28;20057;-84
2022/12/15 01:41:05;;;;;;;30.95;12.65;;;;;;;;;;5038890;28;20049;-84
2022/12/15 01:43:35;;;;;;;34.38;14.55;;;;;;;;;;5038337;28;20059;-84
2022/12/15 01:46:05;;;;;;;27.95;13.00;;;;;;;;;;5038413;28;20091;-84
2022/12/15 01:48:34;;;;;;;28.90;13.65;;;;;;;;;;5038376;28;20046;-84
2022/12/15 01:51:05;;;;;;;28.42;12.80;;;;;;;;;;5038547;28;20057;-84
2022/12/15 01:53:34;;;;;;;28.48;13.05;;;;;;;;;;5038452;28;20051;-84
2022/12/15 01:56:03;;;;;;;26.95;13.43;;;;;;;;;;5038311;28;20049;-84
2022/12/15 01:58:30;;;;;;;27.13;13.38;;;;;;;;;;5037848;28;20064;-84
2022/12/15 02:00:58;;;;;;;28.35;13.48;;;;;;;;;;5039256;28;20124;-84
2022/12/15 02:03:26;;;;;;;28.65;13.65;;;;;;;;;;5037281;28;20544;-84
2022/12/15 02:05:55;;;;;;;27.50;12.32;;;;;;;;;;5037109;28;20046;-84
2022/12/15 02:08:22;;;;;;;25.42;12.82;;;;;;;;;;5037680;28;20050;-84
2022/12/15 02:11:09;;;;;;;25.50;13.13;;;;;;;;;;5037456;28;20049;-83
2022/12/15 02:13:36;;;;;;;28.15;13.30;;;;;;;;;;5037648;28;20104;-84
2022/12/15 02:16:24;;;;;;;25.50;12.40;;;;;;;;;;5037467;28;20061;-84
2022/12/15 02:18:58;;;;;;;28.70;13.13;;;;;;;;;;5037008;28;20081;-83
2022/12/15 02:21:34;;;;;;;26.67;12.80;;;;;;;;;;5037169;28;20045;-84
2022/12/15 02:24:20;;;;;;;25.63;12.27;;;;;;;;;;5038270;28;20045;-83
2022/12/15 02:27:17;;;;;;;32.35;13.68;;;;;;;;;;5037236;28;20045;-84
2022/12/15 02:29:59;;;;;;;27.83;13.82;;;;;;;;;;5020657;28;20050;-84
2022/12/15 02:32:50;;;;;;;25.88;13.02;;;;;;;;;;5020612;28;20060;-84
2022/12/15 02:35:25;;;;;;;25.60;12.98;;;;;;;;;;5026705;28;20072;-84
2022/12/15 02:37:52;;;;;;;23.95;12.52;;;;;;;;;;5036960;28;20045;-84
2022/12/15 02:40:20;;;;;;;24.35;12.48;;;;;;;;;;5036864;28;20050;-84
2022/12/15 02:42:55;;;;;;;24.65;12.52;;;;;;;;;;5037157;28;20046;-83
2022/12/15 02:45:31;;;;;;;24.63;12.27;;;;;;;;;;5037668;28;20060;-84
2022/12/15 02:48:17;;;;;;;26.70;12.57;;;;;;;;;;5037220;28;20050;-84
2022/12/15 02:51:07;;;;;;;24.45;12.25;;;;;;;;;;5036373;28;20049;-84
2022/12/15 02:53:34;;;;;;;27.67;13.70;;;;;;;;;;5030448;28;20042;-84
2022/12/15 02:56:20;;;;;;;35.00;14.50;;;;;;;;;;5037068;28;20075;-84
2022/12/15 02:58:48;;;;;;;28.77;13.48;;;;;;;;;;5037515;28;20488;-84
2022/12/15 03:01:15;;;;;;;34.25;16.15;;;;;;;;;;5036306;28;20056;-83
2022/12/15 03:03:43;;;;;;;37.67;15.82;;;;;;;;;;5036740;28;20053;-84
2022/12/15 03:06:11;;;;;;;25.50;12.65;;;;;;;;;;5036081;28;20045;-84
2022/12/15 03:08:38;;;;;;;27.08;13.60;;;;;;;;;;5036656;28;20061;-83
2022/12/15 03:11:05;;;;;;;24.50;12.73;;;;;;;;;;5036338;28;20042;-84
2022/12/15 03:13:32;;;;;;;26.13;12.73;;;;;;;;;;5036156;28;20507;-84
2022/12/15 03:16:01;;;;;;;24.70;12.35;;;;;;;;;;5037449;28;20057;-83
2022/12/15 03:18:29;;;;;;;25.95;12.80;;;;;;;;;;5036040;28;20133;-84
2022/12/15 03:20:56;;;;;;;26.13;12.05;;;;;;;;;;5036419;28;20057;-84
2022/12/15 03:23:23;;;;;;;25.15;12.18;;;;;;;;;;5036357;28;20072;-83
2022/12/15 03:25:51;;;;;;;26.08;12.00;;;;;;;;;;5035785;28;20045;-83
2022/12/15 03:28:18;;;;;;;24.80;12.32;;;;;;;;;;5035860;28;20052;-83
2022/12/15 03:30:45;;;;;;;26.88;11.82;;;;;;;;;;5036395;28;20053;-84
2022/12/15 03:33:16;;;;;;;24.55;11.73;;;;;;;;;;5035911;28;20064;-83
2022/12/15 03:35:43;;;;;;;27.33;12.65;;;;;;;;;;5036938;28;20423;-83
2022/12/15 03:38:11;;;;;;;23.83;11.13;;;;;;;;;;5036232;28;20050;-83
2022/12/15 03:40:38;;;;;;;27.05;12.75;;;;;;;;;;5035624;28;20052;-84
2022/12/15 03:43:06;;;;;;;26.15;12.45;;;;;;;;;;5035732;28;20041;-83
2022/12/15 03:45:33;;;;;;;26.98;13.20;;;;;;;;;;5041484;22;20390;-77
2022/12/15 03:48:00;;;;;;;26.17;12.80;;;;;;;;;;5013841;28;20423;-78
2022/12/15 03:50:28;;;;;;;24.15;12.40;;;;;;;;;;5014744;28;20128;-77
2022/12/15 03:52:56;;;;;;;26.02;12.95;;;;;;;;;;5014419;28;20053;-77
2022/12/15 03:55:24;;;;;;;31.90;13.70;;;;;;;;;;5012658;28;20056;-77
2022/12/15 03:57:51;;;;;;;37.80;16.10;;;;;;;;;;5012858;28;20137;-77
2022/12/15 04:00:20;;;;;;;30.75;15.55;;;;;;;;;;5014194;28;20060;-77
2022/12/15 04:02:48;;;;;;;30.92;14.77;;;;;;;;;;5014079;28;20423;-77
2022/12/15 04:05:26;;;;;;;29.80;12.95;;;;;;;;;;5012561;28;20053;-77
2022/12/15 04:07:54;;;;;;;24.55;12.20;;;;;;;;;;5013680;28;20137;-78
2022/12/15 04:10:22;;;;;;;29.45;12.38;;;;;;;;;;5013766;28;20045;-77
2022/12/15 04:12:57;;;;;;;26.75;11.88;;;;;;;;;;5012768;28;20050;-79
2022/12/15 04:15:25;;;;;;;33.15;14.48;;;;;;;;;;5012280;28;20160;-80
2022/12/15 04:17:52;;;;;;;33.05;15.90;;;;;;;;;;5013092;28;20054;-78
2022/12/15 04:20:20;;;;;;;36.72;16.50;;;;;;;;;;5012413;28;20084;-77
2022/12/15 04:22:48;;;;;;;31.58;14.50;;;;;;;;;;5013937;28;20061;-78
2022/12/15 05:32:08;;;;;;;42.00;17.05;;;;;;;;;;5019867;28;20049;-80
2022/12/15 05:34:37;;;;;;;51.35;17.80;;;;;;;;;;5019280;28;20137;-79
2022/12/15 05:37:05;;;;;;;52.92;15.63;;;;;;;;;;5018534;28;20077;-79
2022/12/15 05:39:33;;;;;;;31.58;13.27;;;;;;;;;;5016501;28;20520;-79
2022/12/15 05:42:00;;;;;;;27.50;11.60;;;;;;;;;;5016276;28;20057;-79
2022/12/15 05:44:27;;;;;;;21.48;10.50;;;;;;;;;;5016198;28;20054;-78
2022/12/15 05:46:55;;;;;;;26.35;10.80;;;;;;;;;;5016762;28;20136;-78
2022/12/15 05:49:22;;;;;;;22.15;9.77;;;;;;;;;;5016620;28;20140;-78
2022/12/15 05:51:49;;;;;;;23.40;11.57;;;;;;;;;;5016306;28;20061;-77
2022/12/15 05:54:18;;;;;;;21.42;10.68;;;;;;;;;;5015551;28;20050;-77
2022/12/15 05:56:46;;;;;;;21.45;10.10;;;;;;;;;;5017699;28;20243;-78
2022/12/15 05:59:17;;;;;;;19.13;9.55;;;;;;;;;;5016917;28;20546;-77
2022/12/15 06:01:45;;;;;;;27.98;14.25;;;;;;;;;;5016689;28;20069;-78
2022/12/15 06:04:12;;;;;;;24.33;12.00;;;;;;;;;;5015159;28;20053;-78
2022/12/15 06:06:40;;;;;;;21.05;11.50;;;;;;;;;;5016179;28;20046;-78
2022/12/15 06:09:07;;;;;;;25.75;11.57;;;;;;;;;;5015203;28;20056;-78
2022/12/15 06:11:36;;;;;;;18.20;9.85;;;;;;;;;;5016248;28;20046;-79
2022/12/15 06:14:03;;;;;;;26.63;12.82;;;;;;;;;;5015719;28;20124;-81
2022/12/15 06:16:30;;;;;;;25.00;11.15;;;;;;;;;;5018247;28;20050;-80
2022/12/15 06:18:59;;;;;;;22.23;11.65;;;;;;;;;;5017802;28;20045;-80
2022/12/15 06:21:27;;;;;;;20.85;10.43;;;;;;;;;;5017277;28;20132;-80
2022/12/15 06:23:55;;;;;;;18.67;9.55;;;;;;;;;;5018310;28;20419;-81
2022/12/15 06:26:23;;;;;;;18.48;9.10;;;;;;;;;;5017982;28;20046;-79
2022/12/15 06:28:50;;;;;;;20.00;11.48;;;;;;;;;;5017187;28;20046;-80
2022/12/15 06:31:21;;;;;;;35.45;14.90;;;;;;;;;;5016666;28;20564;-78
2022/12/15 06:33:50;;;;;;;34.65;15.38;;;;;;;;;;5016103;28;20492;-77
2022/12/15 06:36:27;;;;;;;32.72;14.57;;;;;;;;;;5016899;28;20413;-79
2022/12/15 06:38:54;;;;;;;22.33;11.50;;;;;;;;;;5015143;28;20054;-80
2022/12/15 06:41:21;;;;;;;21.13;12.35;;;;;;;;;;5015268;28;20045;-79
2022/12/15 06:43:52;;;;;;;25.23;12.18;;;;;;;;;;5016320;28;20046;-80
2022/12/15 06:46:20;;;;;;;23.33;11.65;;;;;;;;;;5015914;28;20401;-79
2022/12/15 06:48:47;;;;;;;19.33;9.63;;;;;;;;;;5016519;28;20058;-80
2022/12/15 06:51:15;;;;;;;22.13;10.07;;;;;;;;;;5014824;28;20133;-79
2022/12/15 06:53:47;;;;;;;17.73;9.30;;;;;;;;;;5015689;28;20053;-77
2022/12/15 06:56:16;;;;;;;19.40;9.25;;;;;;;;;;5014173;28;20053;-79
2022/12/15 06:58:44;;;;;;;17.45;9.43;;;;;;;;;;5013984;28;20050;-79
2022/12/15 07:01:11;;;;;;;21.38;9.77;;;;;;;;;;5015365;28;20049;-77
2022/12/15 07:03:38;;;;;;;25.23;11.45;;;;;;;;;;5015539;28;20050;-79
2022/12/15 07:06:08;;;;;;;26.80;11.50;;;;;;;;;;5014767;28;20077;-78
2022/12/15 07:08:35;;;;;;;28.10;13.40;;;;;;;;;;5014132;28;20485;-79
2022/12/15 07:11:08;;;;;;;30.77;16.85;;;;;;;;;;5014038;28;20050;-77
2022/12/15 07:13:35;;;;;;;44.53;21.98;;;;;;;;;;5015090;28;20049;-77
2022/12/15 07:16:03;;;;;;;28.38;12.80;;;;;;;;;;5014642;28;20050;-76
2022/12/15 07:18:31;;;;;;;41.95;17.75;;;;;;;;;;5014612;28;20049;-78
2022/12/15 07:21:03;;;;;;;49.50;23.08;;;;;;;;;;5013544;28;20046;-77
2022/12/15 07:23:30;;;;;;;48.50;22.13;;;;;;;;;;5013805;28;20050;-79
2022/12/15 07:26:17;;;;;;;27.88;13.32;;;;;;;;;;5013771;28;20053;-80
2022/12/15 07:28:44;;;;;;;27.27;12.20;;;;;;;;;;5014749;28;20064;-80
2022/12/15 07:31:11;;;;;;;35.38;15.27;;;;;;;;;;5013226;28;20046;-79
2022/12/15 07:33:39;;;;;;;41.85;16.25;;;;;;;;;;5013770;28;20103;-79
2022/12/15 07:36:07;;;;;;;37.80;14.55;;;;;;;;;;5013129;28;20295;-79
2022/12/15 07:38:35;;;;;;;30.25;12.13;;;;;;;;;;5013767;28;20137;-79
2022/12/15 07:41:03;;;;;;;30.75;12.70;;;;;;;;;;5013180;28;20136;-79
2022/12/15 07:43:31;;;;;;;21.13;10.38;;;;;;;;;;5013298;28;20042;-78
2022/12/15 07:45:59;;;;;;;21.85;10.98;;;;;;;;;;5012836;28;20096;-79
2022/12/15 07:48:27;;;;;;;32.15;14.70;;;;;;;;;;5015156;28;20077;-81
2022/12/15 07:50:56;;;;;;;31.50;16.10;;;;;;;;;;5016260;28;20054;-80
2022/12/15 07:53:34;;;;;;;36.85;18.73;;;;;;;;;;5017140;28;20057;-80
2022/12/15 07:56:03;;;;;;;38.70;15.57;;;;;;;;;;5014992;28;20054;-81
2022/12/15 07:58:36;;;;;;;31.77;14.38;;;;;;;;;;5017015;28;20496;-81
2022/12/15 08:01:07;;;;;;;26.60;13.50;;;;;;;;;;5014537;28;20527;-79
2022/12/15 08:03:35;;;;;;;22.38;10.43;;;;;;;;;;5014554;28;20512;-80
2022/12/15 08:06:08;;;;;;;24.77;12.82;;;;;;;;;;5015528;28;20077;-80
2022/12/15 08:08:36;;;;;;;23.92;12.68;;;;;;;;;;5014423;28;20423;-80
2022/12/15 08:11:04;;;;;;;28.85;13.10;;;;;;;;;;5015393;28;20523;-79
2022/12/15 08:13:32;;;;;;;25.27;12.38;;;;;;;;;;5014564;28;20045;-79
2022/12/15 08:16:19;;;;;;;28.17;14.07;;;;;;;;;;5015017;28;20381;-81
2022/12/15 08:18:47;;;;;;;25.80;13.48;;;;;;;;;;5014888;28;20054;-79
2022/12/15 08:21:14;;;;;;;27.58;13.85;;;;;;;;;;5013235;28;20078;-79
2022/12/15 08:23:42;;;;;;;28.42;13.30;;;;;;;;;;5014361;28;20505;-79
2022/12/15 08:26:14;;;;;;;25.00;13.73;;;;;;;;;;5012862;28;20132;-81
2022/12/15 08:28:41;;;;;;;;;;;;;;;;;;5015013;28;20129;-79
2022/12/15 08:31:10;;;;;;;24.77;12.27;;;;;;;;;;5012359;28;19925;-76
2022/12/15 08:33:37;;;;;;;26.35;12.23;;;;;;;;;;5012560;28;20050;-80
2022/12/15 08:36:06;;;;;;;23.55;11.50;;;;;;;;;;5013563;28;20057;-81
2022/12/15 08:38:34;;;;;;;23.63;12.85;;;;;;;;;;5013260;28;20133;-76
2022/12/15 08:41:11;;;;;;;26.63;12.38;;;;;;;;;;5013309;28;20054;-79
2022/12/15 08:43:40;;;;;;;21.55;11.63;;;;;;;;;;5013576;28;20133;-80
2022/12/15 08:46:15;;;;;;;24.50;12.73;;;;;;;;;;5011971;28;20100;-79
2022/12/15 08:48:43;;;;;;;26.52;12.90;;;;;;;;;;5013148;28;20057;-80
2022/12/15 08:51:10;;;;;;;27.30;13.63;;;;;;;;;;5012903;28;20056;-79
2022/12/15 08:53:38;;;;;;;28.83;14.52;;;;;;;;;;5013487;28;20096;-80
2022/12/15 08:56:06;;;;;;;30.08;14.25;;;;;;;;;;5012728;28;20042;-76
2022/12/15 08:58:33;;;;;;;29.10;15.32;;;;;;;;;;5011978;28;20096;-79
2022/12/15 09:01:02;;;;;;;32.20;14.70;;;;;;;;;;5013140;28;20050;-80
2022/12/15 09:03:29;;;;;;;22.83;12.40;;;;;;;;;;5011739;28;20057;-79
2022/12/15 09:06:01;;;;;;;23.90;13.20;;;;;;;;;;5011593;28;20089;-79
2022/12/15 09:08:29;;;;;;;27.17;13.77;;;;;;;;;;5014962;28;20045;-80
2022/12/15 09:10:57;;;;;;;25.52;13.35;;;;;;;;;;5014706;28;20140;-81
2022/12/15 09:13:25;;;;;;;33.20;12.98;;;;;;;;;;5014879;28;20052;-80
2022/12/15 09:15:59;;;;;;;22.23;12.50;;;;;;;;;;5014452;28;20046;-78
2022/12/15 09:18:36;;;;;;;23.17;11.10;;;;;;;;;;5013426;28;20081;-80
2022/12/15 09:21:07;;;;;;;22.55;11.50;;;;;;;;;;5013517;28;20500;-79
2022/12/15 09:23:35;;;;;;;24.90;12.00;;;;;;;;;;5015951;28;20057;-81
2022/12/15 09:26:04;;;;;;;27.30;13.60;;;;;;;;;;5013218;28;20050;-78
2022/12/15 09:28:31;;;;;;;26.30;13.68;;;;;;;;;;5012909;28;20132;-80
2022/12/15 09:31:02;;;;;;;25.23;13.02;;;;;;;;;;5015061;28;20085;-77
2022/12/15 09:33:30;;;;;;;25.90;13.50;;;;;;;;;;5014944;28;20133;-78
2022/12/15 09:35:58;;;;;;;29.08;14.48;;;;;;;;;;5014041;28;20053;-78
2022/12/15 09:38:25;;;;;;;26.35;14.40;;;;;;;;;;5013716;28;20113;-76
2022/12/15 09:40:52;;;;;;;32.67;14.75;;;;;;;;;;5012030;28;20046;-77
2022/12/15 09:43:21;;;;;;;29.52;14.32;;;;;;;;;;5011899;28;20045;-76
2022/12/15 09:46:16;;;;;;;29.50;14.68;;;;;;;;;;5036431;23;20058;-89
2022/12/15 09:48:44;;;;;;;30.30;15.13;;;;;;;;;;5019503;28;20050;-90
2022/12/15 09:51:14;;;;;;;34.58;15.18;;;;;;;;;;5019989;28;20045;-90
2022/12/15 09:53:41;;;;;;;33.15;15.13;;;;;;;;;;5019124;28;20064;-90
2022/12/15 09:56:24;;;;;;;35.03;15.23;;;;;;;;;;5036776;28;20406;-90
2022/12/15 09:59:02;;;;;;;31.67;15.93;;;;;;;;;;5019672;28;20059;-90
2022/12/15 10:01:42;;;;;;;32.50;14.88;;;;;;;;;;5019269;28;20041;-90
2022/12/15 10:04:10;;;;;;;32.00;16.17;;;;;;;;;;5036522;28;20058;-90
2022/12/15 10:06:40;;;;;;;31.92;16.25;;;;;;;;;;5019459;28;20132;-90
2022/12/15 10:09:23;;;;;;;32.10;16.30;;;;;;;;;;5019764;28;20057;-90
2022/12/15 10:11:56;;;;;;;30.13;16.80;;;;;;;;;;5019586;28;20045;-90
2022/12/15 10:14:29;;;;;;;39.53;16.58;;;;;;;;;;5036457;28;20045;-90
2022/12/15 10:17:11;;;;;;;26.65;13.82;;;;;;;;;;5019061;28;20064;-92
2022/12/15 10:20:05;;;;;;;33.25;15.35;;;;;;;;;;5019571;28;20099;-92
2022/12/15 10:22:35;;;;;;;31.15;14.20;;;;;;;;;;5019193;28;20107;-90
2022/12/15 10:25:23;;;;;;;25.83;13.48;;;;;;;;;;5019251;28;20050;-91
2022/12/15 10:28:02;;;;;;;27.27;14.10;;;;;;;;;;5019613;28;20053;-92
2022/12/15 10:30:30;;;;;;;23.85;13.27;;;;;;;;;;5018970;28;20096;-91
2022/12/15 10:33:00;;;;;;;26.75;14.00;;;;;;;;;;5018990;28;20056;-94
2022/12/15 10:35:32;;;;;;;28.10;13.85;;;;;;;;;;5018648;28;20401;-93
2022/12/15 10:38:07;;;;;;;30.77;13.00;;;;;;;;;;5022241;28;20057;-90
2022/12/15 10:41:04;;;;;;;26.55;11.85;;;;;;;;;;5019074;28;20494;-93
2022/12/15 10:43:35;;;;;;;27.30;13.32;;;;;;;;;;5019466;28;20128;-91
2022/12/15 10:46:07;;;;;;;26.27;12.60;;;;;;;;;;5035865;28;20061;-91
2022/12/15 10:48:35;;;;;;;41.35;15.10;;;;;;;;;;5036355;28;20053;-93
2022/12/15 10:51:17;;;;;;;34.55;15.02;;;;;;;;;;5018242;28;20055;-91
2022/12/15 10:54:05;;;;;;;34.13;14.40;;;;;;;;;;5035443;28;20049;-92
2022/12/15 10:56:33;;;;;;;28.85;13.40;;;;;;;;;;5035913;28;20476;-92
2022/12/15 10:59:02;;;;;;;35.33;14.50;;;;;;;;;;5018188;28;20049;-91
2022/12/15 11:01:31;;;;;;;37.30;13.65;;;;;;;;;;5017900;28;20096;-92
2022/12/15 11:03:59;;;;;;;31.52;12.02;;;;;;;;;;5019772;28;20050;-91
2022/12/15 11:06:28;;;;;;;28.23;11.75;;;;;;;;;;5018142;28;20049;-94
2022/12/15 11:08:57;;;;;;;35.83;16.48;;;;;;;;;;5035164;28;20140;-92
2022/12/15 11:14:22;;;;;;;22.50;10.52;;;;;;;;;;5035522;28;20049;-92
2022/12/15 11:16:58;;;;;;;29.80;12.13;;;;;;;;;;5017782;28;20049;-95
2022/12/15 11:19:32;;;;;;;25.40;10.05;;;;;;;;;;5018034;28;20049;-93
2022/12/15 11:22:02;;;;;;;17.65;8.52;;;;;;;;;;5017668;28;20053;-92
2022/12/15 11:24:34;;;;;;;20.55;9.57;;;;;;;;;;5017751;28;20045;-92
2022/12/15 11:27:37;;;;;;;25.23;10.23;;;;;;;;;;5018002;28;20133;-92
2022/12/15 11:30:18;;;;;;;32.33;11.60;;;;;;;;;;4939484;29;20488;-92
2022/12/15 11:32:48;;;;;;;33.90;13.15;;;;;;;;;;5010101;28;20108;-92
2022/12/15 11:35:21;;;;;;;29.58;11.50;;;;;;;;;;5017824;28;20091;-92
2022/12/15 11:37:57;;;;;;;30.98;13.35;;;;;;;;;;5017432;28;20050;-93
2022/12/15 11:40:32;;;;;;;26.55;11.80;;;;;;;;;;5017526;28;20508;-94
2022/12/15 11:43:15;;;;;;;27.33;11.02;;;;;;;;;;5017238;28;20060;-94
2022/12/15 11:46:02;;;;;;;17.13;9.40;;;;;;;;;;5034542;28;20059;-92
2022/12/15 11:48:48;;;;;;;31.35;9.07;;;;;;;;;;5034954;28;20047;-94
2022/12/15 11:51:40;;;;;;;18.48;7.72;;;;;;;;;;5034806;28;20053;-92
2022/12/15 11:54:07;;;;;;;17.35;7.47;;;;;;;;;;5034542;28;20053;-92
2022/12/15 11:56:40;;;;;;;17.65;7.97;;;;;;;;;;5017314;28;20049;-92
2022/12/15 11:59:07;;;;;;;;;;;;;;;;;;5017690;28;20045;-92
2022/12/15 12:01:37;;;;;;;13.27;7.68;;;;;;;;;;5046114;28;19921;-92
2022/12/15 12:04:15;;;;;;;11.80;6.95;;;;;;;;;;5052951;28;20114;-92
2022/12/15 12:06:49;;;;;;;16.92;7.35;;;;;;;;;;5053531;28;20076;-92
2022/12/15 12:09:16;;;;;;;24.17;7.95;;;;;;;;;;5035752;28;20064;-93
2022/12/15 12:12:04;;;;;;;18.48;7.20;;;;;;;;;;5054132;28;20113;-92
2022/12/15 12:14:41;;;;;;;17.70;7.88;;;;;;;;;;5036509;28;20076;-93
2022/12/15 12:17:14;;;;;;;14.75;5.68;;;;;;;;;;5036553;28;20102;-94
2022/12/15 12:19:43;;;;;;;7.97;4.97;;;;;;;;;;5053964;28;20064;-94
2022/12/15 12:22:28;;;;;;;15.15;6.32;;;;;;;;;;5054089;28;20045;-94
2022/12/15 12:25:03;;;;;;;12.70;5.93;;;;;;;;;;5054243;28;20048;-92
2022/12/15 12:27:40;;;;;;;12.75;6.38;;;;;;;;;;5036760;28;20080;-93
2022/12/15 12:30:17;;;;;;;21.23;6.60;;;;;;;;;;5036711;28;20049;-94
2022/12/15 12:32:48;;;;;;;17.70;7.45;;;;;;;;;;5036199;28;20053;-93
2022/12/15 12:35:19;;;;;;;14.30;7.07;;;;;;;;;;5053802;28;20049;-92
2022/12/15 12:38:03;;;;;;;11.95;6.93;;;;;;;;;;5037902;28;20567;-94
2022/12/15 12:40:40;;;;;;;12.65;6.28;;;;;;;;;;5053643;28;20049;-93
2022/12/15 12:43:12;;;;;;;8.80;5.35;;;;;;;;;;5053736;28;20060;-93
2022/12/15 12:45:40;;;;;;;10.02;4.95;;;;;;;;;;5053719;28;20060;-94
2022/12/15 12:48:21;;;;;;;8.52;5.75;;;;;;;;;;5037225;28;20178;-94
2022/12/15 12:50:51;;;;;;;11.88;6.20;;;;;;;;;;5037299;28;20088;-94
2022/12/15 12:53:31;;;;;;;10.30;5.95;;;;;;;;;;5046717;28;20045;-93
2022/12/15 12:55:59;;;;;;;9.35;6.25;;;;;;;;;;5040984;28;20585;-94
2022/12/15 12:58:36;;;;;;;11.10;6.47;;;;;;;;;;5036412;28;20041;-95
2022/12/15 13:01:05;;;;;;;10.35;6.13;;;;;;;;;;5036125;28;20045;-93
2022/12/15 13:03:38;;;;;;;9.48;5.65;;;;;;;;;;5037111;28;20104;-93
2022/12/15 13:06:24;;;;;;;13.40;5.70;;;;;;;;;;5036299;28;20069;-93
2022/12/15 13:08:52;;;;;;;10.27;5.97;;;;;;;;;;5054077;28;20049;-95
2022/12/15 13:11:38;;;;;;;11.05;5.32;;;;;;;;;;5035806;28;20472;-92
2022/12/15 13:14:24;;;;;;;11.95;5.47;;;;;;;;;;5053595;28;20093;-93
2022/12/15 13:17:04;;;;;;;8.80;5.68;;;;;;;;;;5053158;28;20151;-93
2022/12/15 13:19:55;;;;;;;9.25;5.60;;;;;;;;;;5040645;28;20390;-94
2022/12/15 13:22:33;;;;;;;11.32;6.45;;;;;;;;;;5040416;28;20489;-91
2022/12/15 13:25:01;;;;;;;12.25;5.93;;;;;;;;;;5040166;28;20072;-94
2022/12/15 13:27:36;;;;;;;9.63;6.22;;;;;;;;;;5039397;28;20053;-94
2022/12/15 13:30:03;;;;;;;11.18;7.03;;;;;;;;;;5039525;28;20128;-94
2022/12/15 13:32:32;;;;;;;13.05;6.78;;;;;;;;;;5040126;28;20056;-96
2022/12/15 13:35:03;;;;;;;13.07;7.28;;;;;;;;;;5039735;28;20052;-95
2022/12/15 13:37:46;;;;;;;13.52;7.35;;;;;;;;;;5040308;28;20128;-93
2022/12/15 13:40:24;;;;;;;14.23;7.22;;;;;;;;;;5039917;28;20045;-94
2022/12/15 13:42:58;;;;;;;14.10;6.72;;;;;;;;;;5039489;28;20056;-94
2022/12/15 13:45:44;;;;;;;12.32;6.93;;;;;;;;;;5039378;28;20059;-96
2022/12/15 13:48:39;;;;;;;10.13;6.15;;;;;;;;;;5057267;28;20136;-96
2022/12/15 13:51:26;;;;;;;11.65;5.78;;;;;;;;;;5030190;28;20057;-96
2022/12/15 13:54:03;;;;;;;11.48;5.97;;;;;;;;;;5040430;28;20049;-96
2022/12/15 13:56:47;;;;;;;13.88;8.15;;;;;;;;;;5039926;28;20045;-96
2022/12/15 13:59:26;;;;;;;13.48;8.43;;;;;;;;;;5039720;28;20055;-96
2022/12/15 14:01:53;;;;;;;13.82;7.85;;;;;;;;;;5039960;28;20041;-96
2022/12/15 14:04:25;;;;;;;17.85;10.25;;;;;;;;;;5057545;28;20110;-96
2022/12/15 14:06:57;;;;;;;45.92;21.02;;;;;;;;;;5057238;28;20059;-96
2022/12/15 14:09:41;;;;;;;36.85;18.10;;;;;;;;;;5040538;28;20059;-96
2022/12/15 14:12:13;;;;;;;37.65;19.05;;;;;;;;;;5040765;28;20061;-96
2022/12/15 14:14:48;;;;;;;32.15;14.25;;;;;;;;;;5057305;28;20056;-96
2022/12/15 14:17:17;;;;;;;20.23;12.45;;;;;;;;;;5039194;28;20044;-96
2022/12/15 14:19:45;;;;;;;30.58;13.90;;;;;;;;;;5056594;28;20049;-96
2022/12/15 14:22:22;;;;;;;55.47;22.27;;;;;;;;;;5040150;28;20049;-96
2022/12/15 14:24:59;;;;;;;54.33;22.08;;;;;;;;;;5039910;28;20073;-96
2022/12/15 14:27:29;;;;;;;55.67;22.90;;;;;;;;;;5039384;28;20061;-95
2022/12/15 14:30:12;;;;;;;37.70;16.85;;;;;;;;;;5039228;28;20070;-96
2022/12/15 14:32:42;;;;;;;18.13;10.52;;;;;;;;;;5055885;28;20056;-96
2022/12/15 14:35:22;;;;;;;21.73;10.15;;;;;;;;;;5038620;28;20052;-96
2022/12/15 14:37:49;;;;;;;22.98;11.10;;;;;;;;;;5039240;28;20041;-96
2022/12/15 14:40:19;;;;;;;13.98;9.43;;;;;;;;;;5039288;28;20492;-96
2022/12/15 14:42:54;;;;;;;17.90;9.65;;;;;;;;;;5039852;28;20053;-96
2022/12/15 14:45:24;;;;;;;19.13;10.70;;;;;;;;;;5039377;28;20056;-96
2022/12/15 14:47:56;;;;;;;24.27;15.20;;;;;;;;;;5038737;28;20501;-95
2022/12/15 14:50:47;;;;;;;24.02;14.90;;;;;;;;;;5056015;28;20048;-96
2022/12/15 14:53:18;;;;;;;28.55;15.93;;;;;;;;;;5038809;28;20041;-95
2022/12/15 14:55:46;;;;;;;32.35;16.55;;;;;;;;;;5038311;28;20060;-96
2022/12/15 14:58:31;;;;;;;35.45;16.48;;;;;;;;;;5038846;28;20191;-95
2022/12/15 15:01:01;;;;;;;35.88;17.15;;;;;;;;;;5038435;28;20041;-96
2022/12/15 15:03:39;;;;;;;28.90;16.27;;;;;;;;;;5038031;28;20090;-94
2022/12/15 15:06:10;;;;;;;34.72;17.70;;;;;;;;;;5038010;28;20053;-95
2022/12/15 15:08:48;;;;;;;29.70;14.73;;;;;;;;;;5058395;28;20140;-95
2022/12/15 15:11:34;;;;;;;26.63;14.45;;;;;;;;;;5038169;28;20083;-96
2022/12/15 15:14:13;;;;;;;21.40;12.32;;;;;;;;;;5037662;28;20049;-96
2022/12/15 15:16:41;;;;;;;25.58;12.80;;;;;;;;;;5037445;28;20048;-95
2022/12/15 15:19:16;;;;;;;25.20;15.20;;;;;;;;;;5037643;28;20489;-95
2022/12/15 15:21:45;;;;;;;25.88;13.75;;;;;;;;;;5037769;28;20045;-95
2022/12/15 15:24:12;;;;;;;26.42;13.73;;;;;;;;;;5038481;28;20489;-95
2022/12/15 15:26:42;;;;;;;26.02;15.18;;;;;;;;;;5037799;28;20055;-95
2022/12/15 15:29:48;;;;;;;25.85;14.93;;;;;;;;;;5053242;28;20044;-95
2022/12/15 15:32:30;;;;;;;20.85;10.70;;;;;;;;;;4958883;28;20050;-95
2022/12/15 15:34:57;;;;;;;17.50;9.80;;;;;;;;;;4941905;28;20654;-95
2022/12/15 15:37:25;;;;;;;16.35;9.38;;;;;;;;;;5012319;28;20055;-95
2022/12/15 15:39:55;;;;;;;20.00;10.50;;;;;;;;;;5036423;28;20049;-94
2022/12/15 15:42:22;;;;;;;22.85;12.18;;;;;;;;;;5036314;28;20472;-95
2022/12/15 15:44:58;;;;;;;25.38;15.18;;;;;;;;;;5052677;28;20084;-95
2022/12/15 15:47:25;;;;;;;22.83;13.55;;;;;;;;;;5053236;28;20049;-95
2022/12/15 15:49:54;;;;;;;22.73;13.52;;;;;;;;;;5036116;28;20061;-94
2022/12/15 15:52:22;;;;;;;29.52;14.25;;;;;;;;;;5036308;28;20045;-94
2022/12/15 15:54:50;;;;;;;29.38;15.02;;;;;;;;;;5035997;28;20055;-95
2022/12/15 15:57:19;;;;;;;30.73;15.82;;;;;;;;;;5054096;28;20502;-93
2022/12/15 15:59:46;;;;;;;33.50;15.82;;;;;;;;;;5035744;28;20560;-94
2022/12/15 16:02:14;;;;;;;24.80;12.88;;;;;;;;;;5053448;28;20052;-94
2022/12/15 16:04:43;;;;;;;26.42;12.35;;;;;;;;;;5035575;28;20060;-94
2022/12/15 16:07:16;;;;;;;20.17;12.48;;;;;;;;;;5054069;28;20049;-95
2022/12/15 16:09:43;;;;;;;25.27;12.48;;;;;;;;;;5049096;28;20592;-94
2022/12/15 16:12:20;;;;;;;21.88;11.65;;;;;;;;;;5020633;28;20133;-94
2022/12/15 16:14:48;;;;;;;19.13;10.40;;;;;;;;;;5036441;28;20061;-93
2022/12/15 16:17:16;;;;;;;17.70;9.80;;;;;;;;;;5035870;28;20049;-94
2022/12/15 16:19:44;;;;;;;21.98;10.35;;;;;;;;;;5035939;28;20057;-94
2022/12/15 16:22:21;;;;;;;18.20;10.50;;;;;;;;;;5035830;28;20182;-93
2022/12/15 16:24:49;;;;;;;19.98;10.23;;;;;;;;;;5035646;28;20068;-94
2022/12/15 16:27:16;;;;;;;19.05;10.23;;;;;;;;;;5035729;28;20048;-94
2022/12/15 16:29:43;;;;;;;25.63;12.38;;;;;;;;;;5018210;28;20545;-93
2022/12/15 16:32:12;;;;;;;19.50;11.20;;;;;;;;;;5033442;28;20064;-94
2022/12/15 16:34:40;;;;;;;23.15;12.90;;;;;;;;;;5016174;28;20425;-94
2022/12/15 16:37:17;;;;;;;30.35;14.55;;;;;;;;;;5016093;28;20053;-93
2022/12/15 16:39:44;;;;;;;28.77;15.70;;;;;;;;;;5033228;28;20053;-93
2022/12/15 16:42:11;;;;;;;28.88;15.70;;;;;;;;;;5015867;28;20056;-93
2022/12/15 16:44:39;;;;;;;31.45;16.42;;;;;;;;;;5015757;28;20494;-94
2022/12/15 16:47:06;;;;;;;27.25;15.43;;;;;;;;;;5015719;28;20053;-93
2022/12/15 16:49:33;;;;;;;31.70;15.73;;;;;;;;;;5015708;28;20053;-93
2022/12/15 16:52:11;;;;;;;28.00;14.65;;;;;;;;;;5016645;28;20520;-93
2022/12/15 16:54:38;;;;;;;34.45;16.50;;;;;;;;;;5015424;28;20045;-93
2022/12/15 16:57:06;;;;;;;33.45;16.02;;;;;;;;;;5014451;28;20056;-93
2022/12/15 16:59:33;;;;;;;29.33;15.23;;;;;;;;;;5015505;28;20497;-93
2022/12/15 17:02:14;;;;;;;31.15;14.95;;;;;;;;;;5016228;28;20473;-94
2022/12/15 17:04:41;;;;;;;27.58;15.05;;;;;;;;;;5015007;28;20079;-93
2022/12/15 17:07:09;;;;;;;39.03;16.98;;;;;;;;;;5015531;28;20063;-93
2022/12/15 17:09:38;;;;;;;41.97;19.85;;;;;;;;;;5015454;28;20489;-93